createdAt,value
2022-12-08T00:04:13.355Z,3.06
2022-12-08T00:07:42.335Z,3.00
2022-12-08T00:13:17.738Z,2.98
2022-12-08T00:16:06.344Z,2.84
2022-12-08T00:21:41.359Z,2.87
2022-12-08T00:24:34.545Z,2.81
2022-12-08T00:27:23.193Z,2.81
2022-12-08T00:30:13.045Z,2.75
2022-12-08T00:33:01.450Z,2.63
2022-12-08T00:38:35.877Z,2.65
2022-12-08T00:44:18.694Z,2.56
2022-12-08T00:49:55.881Z,2.68
2022-12-08T00:52:44.309Z,2.44
2022-12-08T00:58:14.118Z,2.35
2022-12-08T01:01:03.609Z,2.46
2022-12-08T01:09:19.458Z,2.12
2022-12-08T01:12:09.281Z,2.16
2022-12-08T01:17:38.628Z,2.36
2022-12-08T01:20:27.039Z,2.28
2022-12-08T01:26:04.889Z,2.46
2022-12-08T01:28:53.365Z,2.34
2022-12-08T01:34:32.226Z,2.34
2022-12-08T01:37:21.489Z,2.36
2022-12-08T01:40:11.701Z,2.29
2022-12-08T01:45:46.865Z,2.24
2022-12-08T01:48:35.240Z,2.28
2022-12-08T01:54:12.733Z,2.13
2022-12-08T01:59:50.789Z,2.27
2022-12-08T02:02:43.002Z,2.21
2022-12-08T02:11:01.312Z,2.32
2022-12-08T02:16:42.093Z,2.21
2022-12-08T02:20:13.219Z,2.12
2022-12-08T02:26:00.303Z,2.41
2022-12-08T02:32:01.746Z,2.30
2022-12-08T02:37:40.145Z,2.20
2022-12-08T02:43:15.540Z,2.39
2022-12-08T02:48:51.017Z,2.28
2022-12-08T02:54:21.240Z,2.45
2022-12-08T03:00:08.674Z,2.40
2022-12-08T03:05:58.063Z,2.50
2022-12-08T03:11:40.478Z,2.50
2022-12-08T03:14:30.024Z,2.45
2022-12-08T03:20:12.863Z,2.51
2022-12-08T03:25:55.720Z,2.44
2022-12-08T03:28:45.100Z,2.26
2022-12-08T03:34:24.517Z,2.47
2022-12-08T03:37:13.160Z,2.41
2022-12-08T03:42:48.373Z,2.56
2022-12-08T03:48:18.377Z,2.60
2022-12-08T03:51:07.027Z,2.48
2022-12-08T03:56:57.660Z,2.72
2022-12-08T03:59:46.093Z,2.69
2022-12-08T04:05:14.009Z,2.69
2022-12-08T04:10:48.256Z,2.69
2022-12-08T04:16:20.213Z,2.69
2022-12-08T04:21:56.924Z,2.69
2022-12-08T04:24:45.533Z,2.72
2022-12-08T04:30:21.515Z,2.61
2022-12-08T04:35:53.131Z,2.70
2022-12-08T04:41:49.278Z,2.56
2022-12-08T04:47:27.189Z,2.49
2022-12-08T04:50:17.875Z,2.59
2022-12-08T04:55:57.493Z,2.51
2022-12-08T04:58:46.368Z,2.43
2022-12-08T05:01:34.636Z,2.59
2022-12-08T05:04:22.717Z,2.62
2022-12-08T05:07:11.112Z,2.51
2022-12-08T05:12:48.343Z,2.58
2022-12-08T05:18:20.225Z,2.61
2022-12-08T05:23:53.133Z,2.60
2022-12-08T05:26:41.501Z,2.63
2022-12-08T05:32:17.302Z,2.84
2022-12-08T05:38:07.757Z,2.81
2022-12-08T05:43:44.193Z,2.77
2022-12-08T05:49:32.777Z,2.82
2022-12-08T05:55:08.401Z,2.76
2022-12-08T05:57:56.587Z,2.69
2022-12-08T06:00:45.304Z,2.75
2022-12-08T06:06:13.841Z,2.48
2022-12-08T06:09:05.338Z,2.59
2022-12-08T06:14:39.734Z,2.52
2022-12-08T06:20:17.556Z,2.59
2022-12-08T06:25:53.443Z,2.40
2022-12-08T06:28:42.633Z,2.38
2022-12-08T06:34:16.720Z,2.45
2022-12-08T06:39:51.739Z,2.46
2022-12-08T06:45:30.212Z,2.32
2022-12-08T06:51:12.192Z,2.57
2022-12-08T06:54:00.793Z,2.54
2022-12-08T06:56:49.202Z,2.52
2022-12-08T07:02:26.767Z,2.53
2022-12-08T07:08:03.129Z,2.46
2022-12-08T07:13:40.743Z,2.37
2022-12-08T07:16:29.165Z,2.41
2022-12-08T07:19:20.438Z,2.49
2022-12-08T07:24:59.506Z,2.55
2022-12-08T07:27:47.682Z,2.43
2022-12-08T07:30:35.848Z,2.52
2022-12-08T07:33:24.689Z,2.46
2022-12-08T07:36:13.441Z,2.51
2022-12-08T07:41:45.779Z,2.72
2022-12-08T07:47:15.821Z,2.69
2022-12-08T07:52:54.868Z,2.77
2022-12-08T07:58:25.628Z,2.76
2022-12-08T08:01:22.952Z,2.75
2022-12-08T08:07:00.190Z,2.88
2022-12-08T08:12:36.677Z,3.06
2022-12-08T08:18:14.326Z,3.04
2022-12-08T08:26:26.541Z,3.29
2022-12-08T08:31:56.340Z,3.41
2022-12-08T08:37:48.773Z,3.55
2022-12-08T08:43:35.986Z,3.64
2022-12-08T08:46:22.138Z,3.61
2022-12-08T08:51:56.564Z,3.70
2022-12-08T08:57:29.067Z,3.80
2022-12-08T09:03:21.495Z,3.93
2022-12-08T09:08:51.235Z,4.05
2022-12-08T09:14:25.856Z,4.23
2022-12-08T09:17:14.672Z,4.17
2022-12-08T09:20:03.499Z,4.06
2022-12-08T09:22:52.205Z,3.95
2022-12-08T09:28:28.205Z,4.29
2022-12-08T09:34:04.638Z,4.38
2022-12-08T09:36:52.707Z,4.27
2022-12-08T09:39:41.344Z,4.32
2022-12-08T09:45:22.739Z,4.56
2022-12-08T09:51:15.408Z,4.51
2022-12-08T09:56:58.807Z,4.39
2022-12-08T10:02:42.979Z,4.34
2022-12-08T10:08:22.773Z,4.24
2022-12-08T10:14:04.777Z,4.58
2022-12-08T10:19:37.846Z,4.82
2022-12-08T10:28:14.974Z,5.31
2022-12-08T10:36:50.465Z,5.62
2022-12-08T10:39:42.870Z,5.81
2022-12-08T10:42:35.243Z,6.11
2022-12-08T10:48:19.654Z,6.47
2022-12-08T10:56:55.312Z,6.33
2022-12-08T10:59:45.895Z,6.30
2022-12-08T11:05:20.036Z,6.34
2022-12-08T11:17:10.476Z,6.84
2022-12-08T11:22:47.118Z,7.21
2022-12-08T11:28:16.366Z,6.98
2022-12-08T11:33:47.840Z,6.95
2022-12-08T11:39:28.210Z,7.01
2022-12-08T11:45:13.386Z,7.07
2022-12-08T11:50:59.693Z,5.99
2022-12-08T11:53:54.144Z,6.26
2022-12-08T11:59:46.900Z,6.14
2022-12-08T12:06:09.321Z,5.99
2022-12-08T12:11:43.375Z,6.28
2022-12-08T12:17:33.618Z,6.19
2022-12-08T12:26:19.653Z,6.05
2022-12-08T12:29:11.432Z,5.86
2022-12-08T12:34:50.887Z,5.71
2022-12-08T12:43:34.128Z,5.71
2022-12-08T12:46:43.900Z,5.68
2022-12-08T12:52:48.543Z,5.56
2022-12-08T12:58:43.848Z,5.58
2022-12-08T13:04:58.921Z,5.52
2022-12-08T13:13:26.125Z,5.29
2022-12-08T13:19:02.411Z,5.29
2022-12-08T13:21:51.174Z,5.28
2022-12-08T13:24:41.020Z,5.15
2022-12-08T13:30:46.933Z,5.33
2022-12-08T13:36:23.692Z,5.57
2022-12-08T13:42:07.060Z,5.35
2022-12-08T13:48:21.727Z,4.66
2022-12-08T13:59:35.288Z,4.67
2022-12-08T14:05:34.830Z,4.81
2022-12-08T14:10:39.719Z,4.52
2022-12-08T14:13:32.259Z,4.37
2022-12-08T14:19:17.246Z,4.24
2022-12-08T14:24:50.148Z,4.35
2022-12-08T14:30:26.732Z,4.33
2022-12-08T14:36:10.584Z,4.29
2022-12-08T14:42:05.695Z,4.10
2022-12-08T14:47:52.610Z,4.17
2022-12-08T14:53:39.463Z,3.93
2022-12-08T14:59:18.989Z,3.58
2022-12-08T15:05:11.976Z,3.48
2022-12-08T15:08:03.853Z,3.25
2022-12-08T15:13:55.171Z,3.28
2022-12-08T15:19:56.998Z,3.26
2022-12-08T15:25:29.411Z,3.08
2022-12-08T15:28:24.001Z,3.01
2022-12-08T15:31:12.661Z,3.03
2022-12-08T15:36:53.956Z,2.74
2022-12-08T15:45:11.192Z,2.53
2022-12-08T15:50:41.635Z,2.25
2022-12-08T15:53:30.325Z,2.22
2022-12-08T15:59:06.090Z,2.27
2022-12-08T16:05:18.320Z,2.16
2022-12-08T16:10:45.511Z,1.98
2022-12-08T16:19:20.425Z,1.87
2022-12-08T16:25:14.748Z,1.80
2022-12-08T16:28:05.262Z,1.63
2022-12-08T16:33:28.004Z,1.61
2022-12-08T16:39:00.010Z,1.59
2022-12-08T16:47:21.226Z,1.49
2022-12-08T16:52:48.340Z,1.46
2022-12-08T16:55:39.214Z,1.39
2022-12-08T17:01:18.933Z,1.39
2022-12-08T17:04:30.483Z,1.39
2022-12-08T17:09:45.025Z,1.37
2022-12-08T17:15:19.350Z,1.36
2022-12-08T17:20:51.872Z,1.42
2022-12-08T17:26:25.229Z,1.38
2022-12-08T17:31:59.983Z,1.42
2022-12-08T17:37:35.132Z,1.23
2022-12-08T17:40:28.155Z,1.13
2022-12-08T17:43:16.365Z,1.28
2022-12-08T17:48:49.159Z,1.30
2022-12-08T17:51:39.272Z,1.52
2022-12-08T17:57:12.100Z,1.40
2022-12-08T18:02:39.479Z,1.58
2022-12-08T18:08:33.104Z,1.59
2022-12-08T18:14:10.181Z,1.68
2022-12-08T18:19:40.073Z,1.59
2022-12-08T18:25:19.456Z,1.64
2022-12-08T18:30:51.242Z,1.66
2022-12-08T18:36:56.124Z,1.77
2022-12-08T18:39:46.410Z,1.70
2022-12-08T18:45:23.210Z,1.81
2022-12-08T18:48:13.695Z,1.85
2022-12-08T18:51:03.904Z,1.76
2022-12-08T18:56:43.627Z,1.75
2022-12-08T19:02:21.209Z,1.81
2022-12-08T19:05:11.762Z,1.73
2022-12-08T19:08:03.463Z,1.80
2022-12-08T19:10:53.468Z,1.84
2022-12-08T19:19:39.593Z,2.03
2022-12-08T19:22:29.530Z,1.97
2022-12-08T19:25:32.762Z,1.94
2022-12-08T19:31:07.953Z,2.12
2022-12-08T19:36:44.424Z,2.24
2022-12-08T19:40:02.181Z,2.15
2022-12-08T19:45:38.964Z,2.31
2022-12-08T19:48:32.340Z,2.35
2022-12-08T19:54:59.045Z,2.41
2022-12-08T19:57:50.547Z,2.24
2022-12-08T20:03:38.544Z,2.10
2022-12-08T20:09:10.710Z,2.06
2022-12-08T20:14:49.764Z,2.08
2022-12-08T20:20:24.829Z,2.11
2022-12-08T20:26:23.438Z,2.13
2022-12-08T20:34:35.245Z,2.09
2022-12-08T20:44:09.810Z,2.42
2022-12-08T20:46:58.591Z,2.38
2022-12-08T20:52:58.547Z,2.37
2022-12-08T20:58:41.789Z,2.38
2022-12-08T21:04:24.075Z,2.30
2022-12-08T21:07:17.826Z,2.20
2022-12-08T21:10:08.679Z,2.21
2022-12-08T21:15:47.171Z,2.24
2022-12-08T21:21:18.548Z,2.45
2022-12-08T21:24:10.640Z,2.37
2022-12-08T21:29:45.268Z,2.41
2022-12-08T21:35:25.213Z,2.43
2022-12-08T21:38:13.718Z,2.29
2022-12-08T21:41:05.130Z,2.29
2022-12-08T21:46:43.807Z,2.45
2022-12-08T21:52:56.569Z,2.33
2022-12-08T21:58:26.389Z,2.34
2022-12-08T22:04:09.217Z,2.46
2022-12-08T22:09:50.377Z,2.58
2022-12-08T22:19:19.982Z,2.52
2022-12-08T23:08:37.306Z,2.54
2022-12-08T23:11:28.879Z,2.43
2022-12-08T23:17:04.573Z,2.32
2022-12-08T23:22:40.553Z,2.61
2022-12-08T23:28:25.325Z,2.65
2022-12-08T23:33:59.948Z,2.62
2022-12-08T23:36:48.677Z,2.48
2022-12-08T23:45:05.480Z,2.47
2022-12-08T23:50:39.584Z,2.40
2022-12-08T23:56:17.406Z,2.51
